sensor_id;sensor_type;location;lat;lon;timestamp;P1;durP1;ratioP1;P2;durP2;ratioP2
3249;SDS011;1637;42.020;23.992;2023-07-08T00:00:51;21.53;;;10.90;;
3249;SDS011;1637;42.020;23.992;2023-07-08T00:03:18;12.20;;;9.63;;
3249;SDS011;1637;42.020;23.992;2023-07-08T00:05:47;12.80;;;9.10;;
3249;SDS011;1637;42.020;23.992;2023-07-08T00:08:17;15.00;;;10.00;;
3249;SDS011;1637;42.020;23.992;2023-07-08T00:10:46;13.03;;;9.60;;
3249;SDS011;1637;42.020;23.992;2023-07-08T00:13:13;11.50;;;9.20;;
3249;SDS011;1637;42.020;23.992;2023-07-08T00:15:40;17.40;;;10.23;;
3249;SDS011;1637;42.020;23.992;2023-07-08T00:18:09;12.10;;;9.03;;
3249;SDS011;1637;42.020;23.992;2023-07-08T00:20:39;14.03;;;10.20;;
3249;SDS011;1637;42.020;23.992;2023-07-08T00:23:09;12.10;;;10.43;;
3249;SDS011;1637;42.020;23.992;2023-07-08T00:25:36;13.17;;;9.97;;
3249;SDS011;1637;42.020;23.992;2023-07-08T00:28:04;14.27;;;10.40;;
3249;SDS011;1637;42.020;23.992;2023-07-08T00:30:35;11.97;;;9.80;;
3249;SDS011;1637;42.020;23.992;2023-07-08T00:33:02;14.43;;;10.03;;
3249;SDS011;1637;42.020;23.992;2023-07-08T00:35:30;19.30;;;11.73;;
3249;SDS011;1637;42.020;23.992;2023-07-08T00:37:58;11.80;;;9.93;;
3249;SDS011;1637;42.020;23.992;2023-07-08T00:40:29;15.13;;;10.27;;
3249;SDS011;1637;42.020;23.992;2023-07-08T00:42:58;12.33;;;9.60;;
3249;SDS011;1637;42.020;23.992;2023-07-08T00:45:38;17.93;;;11.37;;
3249;SDS011;1637;42.020;23.992;2023-07-08T00:48:11;14.00;;;9.97;;
3249;SDS011;1637;42.020;23.992;2023-07-08T00:50:43;15.00;;;11.03;;
3249;SDS011;1637;42.020;23.992;2023-07-08T00:56:00;14.70;;;10.17;;
3249;SDS011;1637;42.020;23.992;2023-07-08T00:58:33;15.27;;;10.20;;
3249;SDS011;1637;42.020;23.992;2023-07-08T01:01:05;15.00;;;10.30;;
3249;SDS011;1637;42.020;23.992;2023-07-08T01:03:33;15.23;;;10.20;;
3249;SDS011;1637;42.020;23.992;2023-07-08T01:06:06;14.43;;;10.63;;
3249;SDS011;1637;42.020;23.992;2023-07-08T01:08:33;13.80;;;10.20;;
3249;SDS011;1637;42.020;23.992;2023-07-08T01:11:02;14.50;;;10.20;;
3249;SDS011;1637;42.020;23.992;2023-07-08T01:13:32;13.80;;;10.47;;
3249;SDS011;1637;42.020;23.992;2023-07-08T01:16:02;15.00;;;9.93;;
3249;SDS011;1637;42.020;23.992;2023-07-08T01:18:29;13.70;;;9.83;;
3249;SDS011;1637;42.020;23.992;2023-07-08T01:21:00;11.93;;;9.20;;
3249;SDS011;1637;42.020;23.992;2023-07-08T01:23:32;12.97;;;10.20;;
3249;SDS011;1637;42.020;23.992;2023-07-08T01:26:01;17.07;;;9.80;;
3249;SDS011;1637;42.020;23.992;2023-07-08T01:28:28;13.80;;;9.00;;
3249;SDS011;1637;42.020;23.992;2023-07-08T01:30:56;13.30;;;8.90;;
3249;SDS011;1637;42.020;23.992;2023-07-08T01:33:23;12.30;;;9.60;;
3249;SDS011;1637;42.020;23.992;2023-07-08T01:35:51;16.10;;;11.00;;
3249;SDS011;1637;42.020;23.992;2023-07-08T01:38:21;15.30;;;9.10;;
3249;SDS011;1637;42.020;23.992;2023-07-08T01:40:53;18.13;;;10.83;;
3249;SDS011;1637;42.020;23.992;2023-07-08T01:43:21;16.53;;;10.87;;
3249;SDS011;1637;42.020;23.992;2023-07-08T01:45:48;18.07;;;10.13;;
3249;SDS011;1637;42.020;23.992;2023-07-08T01:48:18;14.53;;;10.13;;
3249;SDS011;1637;42.020;23.992;2023-07-08T01:50:47;15.53;;;10.40;;
3249;SDS011;1637;42.020;23.992;2023-07-08T01:53:20;14.60;;;9.93;;
3249;SDS011;1637;42.020;23.992;2023-07-08T01:55:49;12.70;;;9.40;;
3249;SDS011;1637;42.020;23.992;2023-07-08T01:58:17;16.90;;;11.87;;
3249;SDS011;1637;42.020;23.992;2023-07-08T02:00:44;14.07;;;9.50;;
3249;SDS011;1637;42.020;23.992;2023-07-08T02:03:13;13.10;;;9.70;;
3249;SDS011;1637;42.020;23.992;2023-07-08T02:05:40;14.70;;;10.10;;
3249;SDS011;1637;42.020;23.992;2023-07-08T02:08:07;19.03;;;10.27;;
3249;SDS011;1637;42.020;23.992;2023-07-08T02:10:34;16.90;;;12.30;;
3249;SDS011;1637;42.020;23.992;2023-07-08T02:13:00;14.70;;;10.77;;
3249;SDS011;1637;42.020;23.992;2023-07-08T02:15:29;12.27;;;9.57;;
3249;SDS011;1637;42.020;23.992;2023-07-08T02:17:56;15.00;;;10.80;;
3249;SDS011;1637;42.020;23.992;2023-07-08T02:20:22;14.87;;;10.47;;
3249;SDS011;1637;42.020;23.992;2023-07-08T02:22:50;13.17;;;9.80;;
3249;SDS011;1637;42.020;23.992;2023-07-08T02:25:16;15.90;;;9.97;;
3249;SDS011;1637;42.020;23.992;2023-07-08T02:27:43;14.67;;;10.23;;
3249;SDS011;1637;42.020;23.992;2023-07-08T02:30:10;13.63;;;9.90;;
3249;SDS011;1637;42.020;23.992;2023-07-08T02:32:38;12.53;;;9.37;;
3249;SDS011;1637;42.020;23.992;2023-07-08T02:35:05;14.17;;;10.30;;
3249;SDS011;1637;42.020;23.992;2023-07-08T02:37:33;19.33;;;10.80;;
3249;SDS011;1637;42.020;23.992;2023-07-08T02:40:00;15.17;;;10.57;;
3249;SDS011;1637;42.020;23.992;2023-07-08T02:42:28;16.53;;;10.80;;
3249;SDS011;1637;42.020;23.992;2023-07-08T02:44:55;17.87;;;11.20;;
3249;SDS011;1637;42.020;23.992;2023-07-08T02:47:22;16.47;;;10.50;;
3249;SDS011;1637;42.020;23.992;2023-07-08T02:49:50;15.90;;;10.83;;
3249;SDS011;1637;42.020;23.992;2023-07-08T02:52:17;14.40;;;11.20;;
3249;SDS011;1637;42.020;23.992;2023-07-08T02:54:44;20.67;;;11.50;;
3249;SDS011;1637;42.020;23.992;2023-07-08T02:57:10;12.70;;;10.43;;
3249;SDS011;1637;42.020;23.992;2023-07-08T02:59:37;14.80;;;11.57;;
3249;SDS011;1637;42.020;23.992;2023-07-08T03:02:04;15.60;;;10.10;;
3249;SDS011;1637;42.020;23.992;2023-07-08T03:04:32;12.57;;;8.80;;
3249;SDS011;1637;42.020;23.992;2023-07-08T03:07:05;15.10;;;10.50;;
3249;SDS011;1637;42.020;23.992;2023-07-08T03:09:36;16.10;;;11.20;;
3249;SDS011;1637;42.020;23.992;2023-07-08T03:12:03;16.33;;;10.87;;
3249;SDS011;1637;42.020;23.992;2023-07-08T03:14:31;12.00;;;9.60;;
3249;SDS011;1637;42.020;23.992;2023-07-08T03:16:58;13.90;;;9.80;;
3249;SDS011;1637;42.020;23.992;2023-07-08T03:19:24;20.17;;;12.23;;
3249;SDS011;1637;42.020;23.992;2023-07-08T03:21:51;19.40;;;11.63;;
3249;SDS011;1637;42.020;23.992;2023-07-08T03:24:19;18.13;;;11.17;;
3249;SDS011;1637;42.020;23.992;2023-07-08T03:26:46;14.57;;;10.77;;
3249;SDS011;1637;42.020;23.992;2023-07-08T03:29:14;20.03;;;11.50;;
3249;SDS011;1637;42.020;23.992;2023-07-08T03:31:43;18.57;;;11.40;;
3249;SDS011;1637;42.020;23.992;2023-07-08T03:34:10;19.77;;;12.57;;
3249;SDS011;1637;42.020;23.992;2023-07-08T03:36:40;16.47;;;10.50;;
3249;SDS011;1637;42.020;23.992;2023-07-08T03:39:13;16.33;;;9.80;;
3249;SDS011;1637;42.020;23.992;2023-07-08T03:41:42;14.33;;;10.20;;
3249;SDS011;1637;42.020;23.992;2023-07-08T03:44:09;11.27;;;9.50;;
3249;SDS011;1637;42.020;23.992;2023-07-08T03:46:36;13.87;;;10.37;;
3249;SDS011;1637;42.020;23.992;2023-07-08T03:49:04;12.70;;;10.47;;
3249;SDS011;1637;42.020;23.992;2023-07-08T03:51:32;16.30;;;9.67;;
3249;SDS011;1637;42.020;23.992;2023-07-08T03:54:02;12.20;;;9.50;;
3249;SDS011;1637;42.020;23.992;2023-07-08T03:56:29;13.50;;;8.63;;
3249;SDS011;1637;42.020;23.992;2023-07-08T03:58:58;10.03;;;8.27;;
3249;SDS011;1637;42.020;23.992;2023-07-08T04:01:25;13.27;;;8.13;;
3249;SDS011;1637;42.020;23.992;2023-07-08T04:03:53;12.23;;;8.60;;
3249;SDS011;1637;42.020;23.992;2023-07-08T04:06:21;15.33;;;8.20;;
3249;SDS011;1637;42.020;23.992;2023-07-08T04:08:48;12.23;;;7.90;;
3249;SDS011;1637;42.020;23.992;2023-07-08T04:11:17;12.77;;;8.70;;
3249;SDS011;1637;42.020;23.992;2023-07-08T04:13:44;10.77;;;8.00;;
3249;SDS011;1637;42.020;23.992;2023-07-08T04:16:13;11.30;;;8.37;;
3249;SDS011;1637;42.020;23.992;2023-07-08T04:18:43;15.93;;;8.33;;
3249;SDS011;1637;42.020;23.992;2023-07-08T04:21:10;13.53;;;8.07;;
3249;SDS011;1637;42.020;23.992;2023-07-08T04:23:37;10.83;;;7.97;;
3249;SDS011;1637;42.020;23.992;2023-07-08T04:26:03;12.23;;;7.30;;
3249;SDS011;1637;42.020;23.992;2023-07-08T04:28:30;10.43;;;8.17;;
3249;SDS011;1637;42.020;23.992;2023-07-08T04:30:58;11.33;;;7.60;;
3249;SDS011;1637;42.020;23.992;2023-07-08T04:33:26;12.80;;;8.23;;
3249;SDS011;1637;42.020;23.992;2023-07-08T04:35:53;10.87;;;8.00;;
3249;SDS011;1637;42.020;23.992;2023-07-08T04:38:21;13.40;;;8.80;;
3249;SDS011;1637;42.020;23.992;2023-07-08T04:40:48;9.73;;;7.03;;
3249;SDS011;1637;42.020;23.992;2023-07-08T04:43:16;11.10;;;8.20;;
3249;SDS011;1637;42.020;23.992;2023-07-08T04:45:43;13.30;;;8.83;;
3249;SDS011;1637;42.020;23.992;2023-07-08T04:48:12;10.80;;;8.57;;
3249;SDS011;1637;42.020;23.992;2023-07-08T04:50:42;12.20;;;8.37;;
3249;SDS011;1637;42.020;23.992;2023-07-08T04:53:10;12.90;;;7.30;;
3249;SDS011;1637;42.020;23.992;2023-07-08T04:55:39;8.97;;;7.50;;
3249;SDS011;1637;42.020;23.992;2023-07-08T04:58:10;10.97;;;8.03;;
3249;SDS011;1637;42.020;23.992;2023-07-08T05:00:37;9.33;;;6.80;;
3249;SDS011;1637;42.020;23.992;2023-07-08T05:03:03;12.43;;;8.13;;
3249;SDS011;1637;42.020;23.992;2023-07-08T05:05:30;10.67;;;7.53;;
3249;SDS011;1637;42.020;23.992;2023-07-08T05:07:58;16.13;;;7.23;;
3249;SDS011;1637;42.020;23.992;2023-07-08T05:10:26;18.20;;;8.60;;
3249;SDS011;1637;42.020;23.992;2023-07-08T05:12:53;13.63;;;9.00;;
3249;SDS011;1637;42.020;23.992;2023-07-08T05:15:20;13.00;;;8.27;;
3249;SDS011;1637;42.020;23.992;2023-07-08T05:17:46;14.30;;;9.40;;
3249;SDS011;1637;42.020;23.992;2023-07-08T05:20:14;21.13;;;9.03;;
3249;SDS011;1637;42.020;23.992;2023-07-08T05:22:41;20.73;;;9.10;;
3249;SDS011;1637;42.020;23.992;2023-07-08T05:25:10;12.53;;;8.13;;
3249;SDS011;1637;42.020;23.992;2023-07-08T05:27:38;25.03;;;8.20;;
3249;SDS011;1637;42.020;23.992;2023-07-08T05:30:06;13.67;;;7.97;;
3249;SDS011;1637;42.020;23.992;2023-07-08T05:32:34;21.83;;;8.13;;
3249;SDS011;1637;42.020;23.992;2023-07-08T05:35:01;11.93;;;7.70;;
3249;SDS011;1637;42.020;23.992;2023-07-08T05:37:28;16.83;;;8.23;;
3249;SDS011;1637;42.020;23.992;2023-07-08T05:39:55;12.13;;;8.23;;
3249;SDS011;1637;42.020;23.992;2023-07-08T05:42:24;16.83;;;8.23;;
3249;SDS011;1637;42.020;23.992;2023-07-08T05:44:50;10.80;;;7.40;;
3249;SDS011;1637;42.020;23.992;2023-07-08T05:47:17;12.03;;;8.00;;
3249;SDS011;1637;42.020;23.992;2023-07-08T05:49:44;12.63;;;8.00;;
3249;SDS011;1637;42.020;23.992;2023-07-08T05:52:11;10.53;;;7.60;;
3249;SDS011;1637;42.020;23.992;2023-07-08T05:54:38;7.23;;;6.50;;
3249;SDS011;1637;42.020;23.992;2023-07-08T05:57:06;10.23;;;7.30;;
3249;SDS011;1637;42.020;23.992;2023-07-08T05:59:35;11.27;;;7.43;;
3249;SDS011;1637;42.020;23.992;2023-07-08T06:02:04;10.33;;;7.50;;
3249;SDS011;1637;42.020;23.992;2023-07-08T06:04:32;8.60;;;6.93;;
3249;SDS011;1637;42.020;23.992;2023-07-08T06:06:59;8.07;;;7.13;;
3249;SDS011;1637;42.020;23.992;2023-07-08T06:09:26;7.20;;;6.50;;
3249;SDS011;1637;42.020;23.992;2023-07-08T06:11:52;11.47;;;8.07;;
3249;SDS011;1637;42.020;23.992;2023-07-08T06:14:19;16.10;;;8.33;;
3249;SDS011;1637;42.020;23.992;2023-07-08T06:16:48;9.27;;;6.77;;
3249;SDS011;1637;42.020;23.992;2023-07-08T06:19:15;9.53;;;7.77;;
3249;SDS011;1637;42.020;23.992;2023-07-08T06:21:44;6.30;;;5.67;;
3249;SDS011;1637;42.020;23.992;2023-07-08T06:24:11;10.30;;;6.23;;
3249;SDS011;1637;42.020;23.992;2023-07-08T06:26:38;12.20;;;6.60;;
3249;SDS011;1637;42.020;23.992;2023-07-08T06:29:05;8.80;;;6.20;;
3249;SDS011;1637;42.020;23.992;2023-07-08T06:31:32;7.00;;;5.90;;
3249;SDS011;1637;42.020;23.992;2023-07-08T06:34:00;9.20;;;5.60;;
3249;SDS011;1637;42.020;23.992;2023-07-08T06:36:27;8.03;;;5.27;;
3249;SDS011;1637;42.020;23.992;2023-07-08T06:38:53;6.00;;;4.83;;
3249;SDS011;1637;42.020;23.992;2023-07-08T06:41:20;6.87;;;5.87;;
3249;SDS011;1637;42.020;23.992;2023-07-08T06:43:47;5.03;;;4.53;;
3249;SDS011;1637;42.020;23.992;2023-07-08T06:46:15;6.23;;;5.37;;
3249;SDS011;1637;42.020;23.992;2023-07-08T06:48:42;21.20;;;15.10;;
3249;SDS011;1637;42.020;23.992;2023-07-08T06:51:11;7.80;;;7.00;;
3249;SDS011;1637;42.020;23.992;2023-07-08T06:53:37;5.57;;;4.70;;
3249;SDS011;1637;42.020;23.992;2023-07-08T06:56:04;5.17;;;4.67;;
3249;SDS011;1637;42.020;23.992;2023-07-08T06:58:31;5.90;;;4.23;;
3249;SDS011;1637;42.020;23.992;2023-07-08T07:00:58;8.30;;;4.83;;
3249;SDS011;1637;42.020;23.992;2023-07-08T07:03:25;9.07;;;4.90;;
3249;SDS011;1637;42.020;23.992;2023-07-08T07:05:52;5.03;;;4.63;;
3249;SDS011;1637;42.020;23.992;2023-07-08T07:08:20;7.00;;;4.60;;
3249;SDS011;1637;42.020;23.992;2023-07-08T07:10:47;4.73;;;4.30;;
3249;SDS011;1637;42.020;23.992;2023-07-08T07:13:14;5.03;;;4.53;;
3249;SDS011;1637;42.020;23.992;2023-07-08T07:15:41;5.57;;;4.73;;
3249;SDS011;1637;42.020;23.992;2023-07-08T07:18:07;6.43;;;4.90;;
3249;SDS011;1637;42.020;23.992;2023-07-08T07:20:36;7.03;;;4.70;;
3249;SDS011;1637;42.020;23.992;2023-07-08T07:23:03;4.80;;;4.40;;
3249;SDS011;1637;42.020;23.992;2023-07-08T07:25:32;5.50;;;4.67;;
3249;SDS011;1637;42.020;23.992;2023-07-08T07:27:58;6.13;;;4.33;;
3249;SDS011;1637;42.020;23.992;2023-07-08T07:30:26;4.40;;;4.00;;
3249;SDS011;1637;42.020;23.992;2023-07-08T07:32:52;5.50;;;3.90;;
3249;SDS011;1637;42.020;23.992;2023-07-08T07:35:19;5.10;;;4.60;;
3249;SDS011;1637;42.020;23.992;2023-07-08T07:37:46;4.77;;;4.40;;
3249;SDS011;1637;42.020;23.992;2023-07-08T07:40:13;5.20;;;4.70;;
3249;SDS011;1637;42.020;23.992;2023-07-08T07:42:42;7.00;;;4.80;;
3249;SDS011;1637;42.020;23.992;2023-07-08T07:45:10;9.10;;;3.77;;
3249;SDS011;1637;42.020;23.992;2023-07-08T07:47:38;5.90;;;4.43;;
3249;SDS011;1637;42.020;23.992;2023-07-08T07:50:06;4.67;;;4.20;;
3249;SDS011;1637;42.020;23.992;2023-07-08T07:52:34;5.80;;;4.60;;
3249;SDS011;1637;42.020;23.992;2023-07-08T07:55:02;5.63;;;4.87;;
3249;SDS011;1637;42.020;23.992;2023-07-08T07:57:29;11.70;;;5.43;;
3249;SDS011;1637;42.020;23.992;2023-07-08T07:59:57;5.57;;;4.77;;
3249;SDS011;1637;42.020;23.992;2023-07-08T08:02:24;5.20;;;4.70;;
3249;SDS011;1637;42.020;23.992;2023-07-08T08:04:51;12.13;;;5.00;;
3249;SDS011;1637;42.020;23.992;2023-07-08T08:07:18;5.27;;;4.77;;
3249;SDS011;1637;42.020;23.992;2023-07-08T08:09:45;5.03;;;3.93;;
3249;SDS011;1637;42.020;23.992;2023-07-08T08:12:11;5.63;;;5.07;;
3249;SDS011;1637;42.020;23.992;2023-07-08T08:14:39;5.40;;;4.50;;
3249;SDS011;1637;42.020;23.992;2023-07-08T08:17:07;5.07;;;3.90;;
3249;SDS011;1637;42.020;23.992;2023-07-08T08:19:34;3.70;;;3.40;;
3249;SDS011;1637;42.020;23.992;2023-07-08T08:22:01;4.40;;;4.00;;
3249;SDS011;1637;42.020;23.992;2023-07-08T08:24:28;5.07;;;3.70;;
3249;SDS011;1637;42.020;23.992;2023-07-08T08:26:54;3.80;;;3.50;;
3249;SDS011;1637;42.020;23.992;2023-07-08T08:29:21;5.10;;;3.10;;
3249;SDS011;1637;42.020;23.992;2023-07-08T08:31:48;8.47;;;3.10;;
3249;SDS011;1637;42.020;23.992;2023-07-08T08:34:17;4.10;;;3.70;;
3249;SDS011;1637;42.020;23.992;2023-07-08T08:36:43;4.30;;;3.33;;
3249;SDS011;1637;42.020;23.992;2023-07-08T08:39:10;4.30;;;4.00;;
3249;SDS011;1637;42.020;23.992;2023-07-08T08:41:38;5.07;;;4.57;;
3249;SDS011;1637;42.020;23.992;2023-07-08T08:44:09;4.47;;;3.73;;
3249;SDS011;1637;42.020;23.992;2023-07-08T08:46:40;3.93;;;3.63;;
3249;SDS011;1637;42.020;23.992;2023-07-08T08:49:18;3.80;;;3.50;;
3249;SDS011;1637;42.020;23.992;2023-07-08T08:51:52;3.50;;;3.17;;
3249;SDS011;1637;42.020;23.992;2023-07-08T08:54:19;4.60;;;4.20;;
3249;SDS011;1637;42.020;23.992;2023-07-08T08:56:48;4.50;;;4.03;;
3249;SDS011;1637;42.020;23.992;2023-07-08T08:59:27;6.63;;;4.90;;
3249;SDS011;1637;42.020;23.992;2023-07-08T09:01:59;4.60;;;4.10;;
3249;SDS011;1637;42.020;23.992;2023-07-08T09:04:31;4.03;;;3.73;;
3249;SDS011;1637;42.020;23.992;2023-07-08T09:07:04;4.33;;;3.93;;
3249;SDS011;1637;42.020;23.992;2023-07-08T09:09:40;9.17;;;5.00;;
3249;SDS011;1637;42.020;23.992;2023-07-08T09:12:15;5.23;;;4.73;;
3249;SDS011;1637;42.020;23.992;2023-07-08T09:14:44;4.63;;;4.20;;
3249;SDS011;1637;42.020;23.992;2023-07-08T09:17:15;6.87;;;4.73;;
3249;SDS011;1637;42.020;23.992;2023-07-08T09:19:49;5.60;;;4.00;;
3249;SDS011;1637;42.020;23.992;2023-07-08T09:22:24;4.77;;;3.93;;
3249;SDS011;1637;42.020;23.992;2023-07-08T09:25:03;10.67;;;4.13;;
3249;SDS011;1637;42.020;23.992;2023-07-08T09:27:34;3.83;;;2.77;;
3249;SDS011;1637;42.020;23.992;2023-07-08T09:30:01;11.53;;;6.10;;
3249;SDS011;1637;42.020;23.992;2023-07-08T09:32:28;7.53;;;5.07;;
3249;SDS011;1637;42.020;23.992;2023-07-08T09:35:03;5.40;;;4.70;;
3249;SDS011;1637;42.020;23.992;2023-07-08T09:37:32;5.03;;;4.50;;
3249;SDS011;1637;42.020;23.992;2023-07-08T09:40:03;6.20;;;4.07;;
3249;SDS011;1637;42.020;23.992;2023-07-08T09:42:37;5.20;;;4.70;;
3249;SDS011;1637;42.020;23.992;2023-07-08T09:45:10;6.97;;;5.13;;
3249;SDS011;1637;42.020;23.992;2023-07-08T09:47:39;7.13;;;4.23;;
3249;SDS011;1637;42.020;23.992;2023-07-08T09:50:16;9.10;;;5.23;;
3249;SDS011;1637;42.020;23.992;2023-07-08T09:52:45;8.33;;;4.40;;
3249;SDS011;1637;42.020;23.992;2023-07-08T09:55:13;5.77;;;5.17;;
3249;SDS011;1637;42.020;23.992;2023-07-08T09:57:40;6.47;;;5.30;;
3249;SDS011;1637;42.020;23.992;2023-07-08T10:00:11;7.90;;;5.40;;
3249;SDS011;1637;42.020;23.992;2023-07-08T10:02:42;7.30;;;4.50;;
3249;SDS011;1637;42.020;23.992;2023-07-08T10:05:17;7.63;;;5.30;;
3249;SDS011;1637;42.020;23.992;2023-07-08T10:07:47;5.63;;;3.43;;
3249;SDS011;1637;42.020;23.992;2023-07-08T10:10:17;5.07;;;4.67;;
3249;SDS011;1637;42.020;23.992;2023-07-08T10:12:52;6.90;;;5.53;;
3249;SDS011;1637;42.020;23.992;2023-07-08T10:15:22;7.50;;;5.10;;
3249;SDS011;1637;42.020;23.992;2023-07-08T10:17:53;6.57;;;5.10;;
3249;SDS011;1637;42.020;23.992;2023-07-08T10:20:22;9.33;;;5.20;;
3249;SDS011;1637;42.020;23.992;2023-07-08T10:23:05;5.90;;;5.30;;
3249;SDS011;1637;42.020;23.992;2023-07-08T10:25:44;5.53;;;4.97;;
3249;SDS011;1637;42.020;23.992;2023-07-08T10:28:23;6.97;;;3.90;;
3249;SDS011;1637;42.020;23.992;2023-07-08T10:30:57;7.43;;;5.10;;
3249;SDS011;1637;42.020;23.992;2023-07-08T10:33:39;10.43;;;5.90;;
3249;SDS011;1637;42.020;23.992;2023-07-08T10:36:22;5.43;;;4.93;;
3249;SDS011;1637;42.020;23.992;2023-07-08T10:39:00;5.27;;;4.70;;
3249;SDS011;1637;42.020;23.992;2023-07-08T10:41:46;4.43;;;4.03;;
3249;SDS011;1637;42.020;23.992;2023-07-08T10:44:25;5.13;;;4.73;;
3249;SDS011;1637;42.020;23.992;2023-07-08T10:46:58;8.97;;;3.90;;
3249;SDS011;1637;42.020;23.992;2023-07-08T10:49:38;5.70;;;4.10;;
3249;SDS011;1637;42.020;23.992;2023-07-08T10:52:23;3.87;;;3.47;;
3249;SDS011;1637;42.020;23.992;2023-07-08T10:55:08;3.93;;;3.60;;
3249;SDS011;1637;42.020;23.992;2023-07-08T10:57:53;5.10;;;2.87;;
3249;SDS011;1637;42.020;23.992;2023-07-08T11:00:43;4.90;;;3.57;;
3249;SDS011;1637;42.020;23.992;2023-07-08T11:03:39;4.63;;;4.23;;
3249;SDS011;1637;42.020;23.992;2023-07-08T11:06:20;8.10;;;4.00;;
3249;SDS011;1637;42.020;23.992;2023-07-08T11:08:55;5.27;;;3.93;;
3249;SDS011;1637;42.020;23.992;2023-07-08T11:11:29;6.80;;;4.23;;
3249;SDS011;1637;42.020;23.992;2023-07-08T11:14:03;5.90;;;4.20;;
3249;SDS011;1637;42.020;23.992;2023-07-08T11:16:36;6.73;;;3.70;;
3249;SDS011;1637;42.020;23.992;2023-07-08T11:19:09;6.60;;;4.20;;
3249;SDS011;1637;42.020;23.992;2023-07-08T11:21:40;4.53;;;3.10;;
3249;SDS011;1637;42.020;23.992;2023-07-08T11:24:13;4.43;;;3.90;;
3249;SDS011;1637;42.020;23.992;2023-07-08T11:26:50;5.80;;;4.37;;
3249;SDS011;1637;42.020;23.992;2023-07-08T11:29:23;4.63;;;3.57;;
3249;SDS011;1637;42.020;23.992;2023-07-08T11:32:09;3.40;;;2.83;;
3249;SDS011;1637;42.020;23.992;2023-07-08T11:34:39;4.77;;;3.50;;
3249;SDS011;1637;42.020;23.992;2023-07-08T11:37:09;3.40;;;3.10;;
3249;SDS011;1637;42.020;23.992;2023-07-08T11:39:40;7.20;;;2.77;;
3249;SDS011;1637;42.020;23.992;2023-07-08T11:42:13;6.77;;;3.60;;
3249;SDS011;1637;42.020;23.992;2023-07-08T11:44:47;8.80;;;3.47;;
3249;SDS011;1637;42.020;23.992;2023-07-08T11:47:19;8.27;;;3.03;;
3249;SDS011;1637;42.020;23.992;2023-07-08T11:49:50;5.67;;;3.40;;
3249;SDS011;1637;42.020;23.992;2023-07-08T11:52:20;8.30;;;2.97;;
3249;SDS011;1637;42.020;23.992;2023-07-08T11:54:56;9.47;;;3.10;;
3249;SDS011;1637;42.020;23.992;2023-07-08T11:57:27;8.13;;;2.80;;
3249;SDS011;1637;42.020;23.992;2023-07-08T12:02:48;11.43;;;2.80;;
3249;SDS011;1637;42.020;23.992;2023-07-08T12:05:16;5.50;;;3.10;;
3249;SDS011;1637;42.020;23.992;2023-07-08T12:07:44;4.43;;;2.30;;
3249;SDS011;1637;42.020;23.992;2023-07-08T12:10:16;3.37;;;2.43;;
3249;SDS011;1637;42.020;23.992;2023-07-08T12:12:45;4.27;;;2.23;;
3249;SDS011;1637;42.020;23.992;2023-07-08T12:15:15;6.63;;;3.33;;
3249;SDS011;1637;42.020;23.992;2023-07-08T12:17:47;8.93;;;4.10;;
3249;SDS011;1637;42.020;23.992;2023-07-08T12:20:17;13.17;;;3.60;;
3249;SDS011;1637;42.020;23.992;2023-07-08T12:22:47;4.03;;;2.80;;
3249;SDS011;1637;42.020;23.992;2023-07-08T12:25:16;3.33;;;2.63;;
3249;SDS011;1637;42.020;23.992;2023-07-08T12:27:45;3.47;;;2.77;;
3249;SDS011;1637;42.020;23.992;2023-07-08T12:30:12;3.83;;;2.87;;
3249;SDS011;1637;42.020;23.992;2023-07-08T12:32:41;3.53;;;2.40;;
3249;SDS011;1637;42.020;23.992;2023-07-08T12:35:14;3.27;;;2.97;;
3249;SDS011;1637;42.020;23.992;2023-07-08T12:37:47;3.77;;;2.23;;
3249;SDS011;1637;42.020;23.992;2023-07-08T12:40:16;3.13;;;2.83;;
3249;SDS011;1637;42.020;23.992;2023-07-08T12:42:43;4.37;;;2.77;;
3249;SDS011;1637;42.020;23.992;2023-07-08T12:45:14;3.70;;;2.83;;
3249;SDS011;1637;42.020;23.992;2023-07-08T12:47:43;6.30;;;2.53;;
3249;SDS011;1637;42.020;23.992;2023-07-08T12:50:11;3.50;;;2.37;;
3249;SDS011;1637;42.020;23.992;2023-07-08T12:52:39;3.40;;;2.40;;
3249;SDS011;1637;42.020;23.992;2023-07-08T12:55:08;5.93;;;2.63;;
3249;SDS011;1637;42.020;23.992;2023-07-08T12:57:38;5.20;;;2.23;;
3249;SDS011;1637;42.020;23.992;2023-07-08T13:00:10;2.97;;;2.23;;
3249;SDS011;1637;42.020;23.992;2023-07-08T13:02:43;4.63;;;3.13;;
3249;SDS011;1637;42.020;23.992;2023-07-08T13:05:11;3.47;;;2.67;;
3249;SDS011;1637;42.020;23.992;2023-07-08T13:07:39;3.60;;;2.93;;
3249;SDS011;1637;42.020;23.992;2023-07-08T13:10:13;7.73;;;3.57;;
3249;SDS011;1637;42.020;23.992;2023-07-08T13:12:48;5.57;;;2.10;;
3249;SDS011;1637;42.020;23.992;2023-07-08T13:15:20;4.20;;;2.30;;
3249;SDS011;1637;42.020;23.992;2023-07-08T13:17:49;10.43;;;2.40;;
3249;SDS011;1637;42.020;23.992;2023-07-08T13:20:17;3.27;;;2.83;;
3249;SDS011;1637;42.020;23.992;2023-07-08T13:22:45;9.93;;;3.47;;
3249;SDS011;1637;42.020;23.992;2023-07-08T13:25:18;2.60;;;1.90;;
3249;SDS011;1637;42.020;23.992;2023-07-08T13:28:00;3.17;;;2.87;;
3249;SDS011;1637;42.020;23.992;2023-07-08T13:30:49;2.57;;;2.37;;
3249;SDS011;1637;42.020;23.992;2023-07-08T13:33:16;3.47;;;2.90;;
3249;SDS011;1637;42.020;23.992;2023-07-08T13:35:44;3.03;;;2.10;;
3249;SDS011;1637;42.020;23.992;2023-07-08T13:38:13;10.67;;;3.10;;
3249;SDS011;1637;42.020;23.992;2023-07-08T13:40:42;3.33;;;2.53;;
3249;SDS011;1637;42.020;23.992;2023-07-08T13:43:13;2.90;;;2.40;;
3249;SDS011;1637;42.020;23.992;2023-07-08T13:45:42;2.93;;;2.53;;
3249;SDS011;1637;42.020;23.992;2023-07-08T13:48:14;3.97;;;2.80;;
3249;SDS011;1637;42.020;23.992;2023-07-08T13:50:51;12.23;;;3.00;;
3249;SDS011;1637;42.020;23.992;2023-07-08T13:53:23;4.43;;;3.57;;
3249;SDS011;1637;42.020;23.992;2023-07-08T13:55:58;3.70;;;3.30;;
3249;SDS011;1637;42.020;23.992;2023-07-08T13:58:29;5.07;;;2.97;;
3249;SDS011;1637;42.020;23.992;2023-07-08T14:00:56;3.23;;;2.93;;
3249;SDS011;1637;42.020;23.992;2023-07-08T14:03:24;3.03;;;2.10;;
3249;SDS011;1637;42.020;23.992;2023-07-08T14:05:51;3.40;;;2.60;;
3249;SDS011;1637;42.020;23.992;2023-07-08T14:08:18;3.03;;;2.50;;
3249;SDS011;1637;42.020;23.992;2023-07-08T14:10:46;6.53;;;2.60;;
3249;SDS011;1637;42.020;23.992;2023-07-08T14:13:13;3.40;;;2.70;;
3249;SDS011;1637;42.020;23.992;2023-07-08T14:15:42;3.57;;;2.70;;
3249;SDS011;1637;42.020;23.992;2023-07-08T14:18:09;3.33;;;3.03;;
3249;SDS011;1637;42.020;23.992;2023-07-08T14:20:37;5.10;;;3.00;;
3249;SDS011;1637;42.020;23.992;2023-07-08T14:23:04;3.23;;;2.70;;
3249;SDS011;1637;42.020;23.992;2023-07-08T14:25:31;6.10;;;2.70;;
3249;SDS011;1637;42.020;23.992;2023-07-08T14:27:57;3.70;;;2.67;;
3249;SDS011;1637;42.020;23.992;2023-07-08T14:30:24;4.60;;;3.10;;
3249;SDS011;1637;42.020;23.992;2023-07-08T14:32:53;4.40;;;3.00;;
3249;SDS011;1637;42.020;23.992;2023-07-08T14:35:21;4.73;;;2.83;;
3249;SDS011;1637;42.020;23.992;2023-07-08T14:37:50;3.87;;;3.20;;
3249;SDS011;1637;42.020;23.992;2023-07-08T14:40:20;3.20;;;2.90;;
3249;SDS011;1637;42.020;23.992;2023-07-08T14:42:51;3.43;;;3.00;;
3249;SDS011;1637;42.020;23.992;2023-07-08T14:45:23;3.23;;;2.93;;
3249;SDS011;1637;42.020;23.992;2023-07-08T14:47:50;3.73;;;3.40;;
3249;SDS011;1637;42.020;23.992;2023-07-08T14:50:18;4.23;;;2.60;;
3249;SDS011;1637;42.020;23.992;2023-07-08T14:52:45;3.20;;;2.90;;
3249;SDS011;1637;42.020;23.992;2023-07-08T14:55:12;2.97;;;2.67;;
3249;SDS011;1637;42.020;23.992;2023-07-08T14:57:40;4.50;;;2.90;;
3249;SDS011;1637;42.020;23.992;2023-07-08T15:00:11;5.33;;;3.63;;
3249;SDS011;1637;42.020;23.992;2023-07-08T15:02:40;7.50;;;3.83;;
3249;SDS011;1637;42.020;23.992;2023-07-08T15:05:10;4.63;;;3.43;;
3249;SDS011;1637;42.020;23.992;2023-07-08T15:07:41;7.47;;;2.90;;
3249;SDS011;1637;42.020;23.992;2023-07-08T15:10:08;4.00;;;2.93;;
3249;SDS011;1637;42.020;23.992;2023-07-08T15:12:36;3.57;;;3.20;;